Time;durP1;ratioP1;P1;durP2;ratioP2;P2;SDS_P1;SDS_P2;PMS_P1;PMS_P2;Temp;Humidity;BMP_temperature;BMP_pressure;BME280_temperature;BME280_humidity;BME280_pressure;Samples;Min_cycle;Max_cycle;Signal;HPM_P1;HPM_P2
2023/12/12 05:33:08;;;;;;;130.40;39.60;;;;;;;-3.64;100.00;100471.93;105580;1276;599301;-78
2023/12/12 05:35:37;;;;;;;119.20;44.00;;;;;;;-2.86;100.00;100479.80;106652;1258;60920;-77
2023/12/12 05:38:06;;;;;;;115.90;43.10;;;;;;;-2.71;100.00;100477.95;106243;1261;60071;-78
2023/12/12 05:40:35;;;;;;;114.90;46.30;;;;;;;-2.85;100.00;100486.77;106566;1265;71574;-79
2023/12/12 05:43:04;;;;;;;119.80;50.70;;;;;;;-2.92;100.00;100485.55;106673;1255;70861;-79
2023/12/12 05:45:33;;;;;;;111.00;49.30;;;;;;;-2.77;100.00;100488.13;106696;1251;70212;-77
2023/12/12 05:48:03;;;;;;;104.80;45.40;;;;;;;-2.68;100.00;100486.42;106624;1252;74584;-77
2023/12/12 05:50:32;;;;;;;94.30;45.30;;;;;;;-2.64;100.00;100481.39;107272;1248;60454;-79
2023/12/12 05:53:01;;;;;;;88.30;41.50;;;;;;;-2.70;100.00;100478.63;107212;1245;60253;-79
2023/12/12 05:55:29;;;;;;;83.50;39.10;;;;;;;-2.64;100.00;100479.52;107284;1258;71770;-78
2023/12/12 05:57:58;;;;;;;72.90;36.50;;;;;;;-2.65;100.00;100481.59;107457;1249;72491;-77
2023/12/12 06:00:27;;;;;;;69.00;33.90;;;;;;;-2.64;100.00;100481.71;107220;1251;69828;-79
2023/12/12 06:02:58;;;;;;;64.40;33.20;;;;;;;-2.48;100.00;100484.79;107457;1249;71921;-78
2023/12/12 06:05:27;;;;;;;60.90;31.10;;;;;;;-2.54;100.00;100487.66;107392;1246;60413;-81
2023/12/12 06:07:56;;;;;;;67.60;29.40;;;;;;;-2.50;100.00;100494.38;107341;1245;59017;-79
2023/12/12 06:10:25;;;;;;;57.80;28.30;;;;;;;-2.38;100.00;100496.84;107267;1249;70185;-79
2023/12/12 06:12:54;;;;;;;56.10;25.30;;;;;;;-2.31;100.00;100494.45;107249;1245;71180;-78
2023/12/12 06:15:22;;;;;;;58.40;29.00;;;;;;;-2.23;100.00;100491.38;107205;1251;70897;-78
2023/12/12 06:17:51;;;;;;;55.80;26.60;;;;;;;-2.15;100.00;100489.66;107243;1248;71559;-79
2023/12/12 06:20:20;;;;;;;58.80;26.90;;;;;;;-2.10;100.00;100489.02;107256;1249;59272;-79
2023/12/12 06:22:49;;;;;;;54.20;25.40;;;;;;;-1.97;100.00;100493.64;107188;1248;59375;-80
2023/12/12 06:25:18;;;;;;;59.20;27.40;;;;;;;-1.92;100.00;100496.10;107194;1249;72597;-79
2023/12/12 06:27:47;;;;;;;70.90;32.20;;;;;;;-1.94;100.00;100500.06;107204;1258;72477;-79
2023/12/12 06:30:17;;;;;;;69.20;31.20;;;;;;;-1.96;100.00;100510.52;107225;1257;70003;-78
2023/12/12 06:32:45;;;;;;;67.00;32.00;;;;;;;-1.82;100.00;100512.60;107239;1245;75348;-79
2023/12/12 06:35:15;;;;;;;80.10;36.00;;;;;;;-1.79;100.00;100503.82;107205;1249;62729;-79
2023/12/12 06:37:43;;;;;;;98.90;42.10;;;;;;;-1.69;100.00;100498.27;107217;1257;60640;-78
2023/12/12 06:40:12;;;;;;;132.80;54.70;;;;;;;-1.62;100.00;100500.98;107179;1249;71310;-79
2023/12/12 06:42:44;;;;;;;77.50;37.50;;;;;;;-1.56;100.00;100512.80;107249;1248;69974;-78
2023/12/12 06:45:13;;;;;;;45.50;23.60;;;;;;;-1.62;100.00;100515.84;107276;1258;67838;-79
2023/12/12 06:47:42;;;;;;;48.40;22.70;;;;;;;-1.61;100.00;100516.16;107000;1251;72953;-78
2023/12/12 06:50:12;;;;;;;46.50;22.20;;;;;;;-1.59;100.00;100512.70;107256;1247;60941;-78
2023/12/12 06:52:40;;;;;;;48.70;22.30;;;;;;;-1.61;100.00;100519.05;107336;1248;60645;-78
2023/12/12 06:55:09;;;;;;;43.20;20.70;;;;;;;-1.54;100.00;100514.94;109494;1245;73227;-79
2023/12/12 06:57:38;;;;;;;46.40;23.00;;;;;;;-1.55;100.00;100517.73;109305;1244;69436;-78
2023/12/12 07:00:07;;;;;;;48.80;23.60;;;;;;;-1.57;100.00;100514.35;109404;1248;68563;-79
2023/12/12 07:02:36;;;;;;;50.10;24.00;;;;;;;-1.55;100.00;100518.05;109506;1244;71238;-78
2023/12/12 07:05:05;;;;;;;55.90;26.60;;;;;;;-1.41;100.00;100516.15;109395;1249;60450;-78
2023/12/12 07:07:34;;;;;;;54.50;26.60;;;;;;;-1.37;100.00;100517.41;109284;1251;59452;-77
2023/12/12 07:10:06;;;;;;;58.30;25.10;;;;;;;-1.19;100.00;100512.49;109480;1244;71816;-77
2023/12/12 07:12:35;;;;;;;52.20;25.40;;;;;;;-1.04;100.00;100513.27;109500;1244;70727;-77
2023/12/12 07:15:23;;;;;;;48.00;24.70;;;;;;;-0.99;100.00;100517.23;109477;1244;70416;-77
2023/12/12 07:17:53;;;;;;;47.70;23.60;;;;;;;-0.83;100.00;100516.79;109372;1248;73852;-78
2023/12/12 07:20:22;;;;;;;46.60;23.60;;;;;;;-0.82;100.00;100517.46;109509;1248;59936;-77
2023/12/12 07:22:51;;;;;;;51.70;26.30;;;;;;;-0.80;100.00;100521.50;109509;1248;59512;-78
2023/12/12 07:25:20;;;;;;;59.70;32.40;;;;;;;-0.75;100.00;100527.52;109408;1245;69190;-78
2023/12/12 07:27:50;;;;;;;61.90;30.60;;;;;;;-0.79;100.00;100525.58;109527;1247;61907;-77
2023/12/12 07:30:19;;;;;;;57.10;32.20;;;;;;;-0.74;100.00;100519.10;109429;1248;67855;-77
2023/12/12 07:32:48;;;;;;;60.40;31.60;;;;;;;-0.62;100.00;100515.67;109451;1248;71882;-77
2023/12/12 07:35:17;;;;;;;52.90;26.60;;;;;;;-0.40;100.00;100508.50;109376;1248;59256;-77
2023/12/12 07:37:46;;;;;;;49.50;24.50;;;;;;;-0.33;100.00;100506.07;109365;1245;60007;-78
2023/12/12 07:40:16;;;;;;;49.70;23.40;;;;;;;-0.16;100.00;100505.05;109282;1244;72647;-77
2023/12/12 07:42:47;;;;;;;43.70;21.40;;;;;;;-0.11;100.00;100503.85;109492;1248;70649;-78
2023/12/12 07:45:18;;;;;;;40.40;20.90;;;;;;;0.05;100.00;100503.16;109515;1244;67779;-78
2023/12/12 07:47:47;;;;;;;56.80;29.30;;;;;;;0.18;100.00;100507.35;109426;1249;71843;-78
2023/12/12 07:50:17;;;;;;;53.30;27.10;;;;;;;0.23;100.00;100507.73;109509;1248;59462;-79
2023/12/12 07:52:47;;;;;;;53.10;26.80;;;;;;;0.43;100.00;100515.95;109448;1244;58724;-79
2023/12/12 07:55:16;;;;;;;53.70;25.20;;;;;;;0.71;100.00;100524.09;109500;1245;70607;-80
2023/12/12 07:57:45;;;;;;;51.10;26.80;;;;;;;0.91;100.00;100523.90;109520;1245;70317;-79
2023/12/12 08:00:14;;;;;;;41.70;24.10;;;;;;;0.80;100.00;100516.06;109431;1244;70357;-79
2023/12/12 08:02:43;;;;;;;48.30;25.60;;;;;;;0.84;100.00;100516.81;109501;1249;71514;-79
2023/12/12 08:05:12;;;;;;;41.40;22.60;;;;;;;1.05;100.00;100517.20;109505;1248;59563;-79
2023/12/12 08:07:41;;;;;;;47.20;24.40;;;;;;;1.29;100.00;100514.65;109493;1248;59784;-78
2023/12/12 08:10:10;;;;;;;43.10;24.40;;;;;;;1.45;100.00;100512.52;109397;1249;70745;-79
2023/12/12 08:12:39;;;;;;;41.40;22.80;;;;;;;1.40;100.00;100505.86;109371;1248;69213;-79
2023/12/12 08:15:08;;;;;;;38.00;20.80;;;;;;;1.74;100.00;100498.68;109365;1248;68648;-78
2023/12/12 08:17:38;;;;;;;38.80;20.20;;;;;;;1.71;100.00;100497.40;109540;1244;71550;-78
2023/12/12 08:20:08;;;;;;;37.70;20.70;;;;;;;1.94;100.00;100490.66;109606;1247;61162;-79
2023/12/12 08:22:37;;;;;;;84.80;25.30;;;;;;;1.96;100.00;100493.69;109417;1248;59308;-78
2023/12/12 08:25:07;;;;;;;35.70;20.40;;;;;;;1.96;100.00;100496.27;109342;1248;69919;-78
2023/12/12 08:27:37;;;;;;;35.20;20.00;;;;;;;1.80;100.00;100498.62;109230;1249;70679;-78
2023/12/12 08:30:07;;;;;;;38.20;19.50;;;;;;;1.79;100.00;100493.65;109297;1244;70233;-78
2023/12/12 08:32:37;;;;;;;41.90;23.50;;;;;;;1.73;100.00;100488.25;109297;1246;71565;-78
2023/12/12 08:35:07;;;;;;;39.10;21.50;;;;;;;1.65;100.00;100486.17;109296;1248;58007;-78
2023/12/12 08:37:38;;;;;;;40.20;22.60;;;;;;;1.71;100.00;100485.73;109194;1248;59394;-79
2023/12/12 08:40:09;;;;;;;40.60;22.30;;;;;;;1.83;100.00;100472.06;109296;1244;72670;-79
2023/12/12 08:42:39;;;;;;;45.70;24.70;;;;;;;1.93;100.00;100469.08;109224;1244;71762;-79
2023/12/12 08:45:09;;;;;;;46.90;23.50;;;;;;;1.73;100.00;100463.51;109229;1244;69170;-78
2023/12/12 08:47:38;;;;;;;41.40;24.70;;;;;;;1.60;100.00;100465.23;109187;1244;71877;-78
2023/12/12 08:50:09;;;;;;;44.20;24.50;;;;;;;1.45;100.00;100474.41;109277;1249;57827;-77
2023/12/12 08:52:38;;;;;;;43.40;23.00;;;;;;;1.66;100.00;100480.63;109260;1249;58499;-78
2023/12/12 08:55:11;;;;;;;38.90;21.30;;;;;;;1.72;100.00;100473.36;109280;1248;70131;-78
2023/12/12 08:57:40;;;;;;;40.60;20.90;;;;;;;1.56;100.00;100461.77;109232;1245;72890;-79
2023/12/12 09:00:10;;;;;;;38.70;19.90;;;;;;;1.51;100.00;100462.15;109368;1244;71567;-79
2023/12/12 09:02:40;;;;;;;36.80;20.00;;;;;;;1.67;100.00;100467.19;109601;1244;73470;-79
2023/12/12 09:05:09;;;;;;;36.70;21.30;;;;;;;1.97;100.00;100468.23;109481;1244;62250;-79
2023/12/12 09:07:37;;;;;;;39.60;22.30;;;;;;;2.21;100.00;100478.40;109510;1245;60794;-79
2023/12/12 09:10:07;;;;;;;39.80;21.00;;;;;;;2.26;100.00;100471.66;109667;1244;73337;-77
2023/12/12 09:12:36;;;;;;;40.00;21.40;;;;;;;2.25;100.00;100473.60;109442;1247;70750;-78
2023/12/12 09:15:06;;;;;;;40.10;22.20;;;;;;;2.47;100.00;100471.29;109647;1244;68593;-79
2023/12/12 09:17:34;;;;;;;37.20;22.70;;;;;;;2.74;100.00;100474.08;109416;1244;73861;-78
2023/12/12 09:20:04;;;;;;;41.00;23.20;;;;;;;2.78;100.00;100474.94;109615;1244;60791;-80
2023/12/12 09:22:34;;;;;;;50.00;27.40;;;;;;;2.79;100.00;100476.44;109530;1245;57693;-79
2023/12/12 09:25:04;;;;;;;47.20;24.00;;;;;;;2.87;100.00;100476.78;109547;1244;70717;-79
2023/12/12 09:27:33;;;;;;;39.70;23.30;;;;;;;2.98;100.00;100469.91;109658;1245;60989;-79
2023/12/12 09:30:03;;;;;;;39.90;23.20;;;;;;;3.12;100.00;100461.37;109525;1242;69040;-79
2023/12/12 09:32:32;;;;;;;36.70;19.90;;;;;;;2.69;100.00;100455.20;109506;1245;71258;-79
2023/12/12 09:35:01;;;;;;;41.50;21.50;;;;;;;2.81;100.00;100457.61;109529;1245;58024;-79
2023/12/12 09:37:30;;;;;;;33.60;20.10;;;;;;;2.92;100.00;100455.20;109687;1244;61222;-79
2023/12/12 09:40:00;;;;;;;38.50;20.70;;;;;;;3.10;100.00;100455.96;109516;1245;71134;-79
2023/12/12 09:42:34;;;;;;;36.60;22.20;;;;;;;3.10;100.00;100457.31;109569;1245;62026;-80
2023/12/12 09:45:15;;;;;;;36.10;21.40;;;;;;;3.26;100.00;100460.06;109546;1243;69763;-79
2023/12/12 09:47:45;;;;;;;61.70;22.40;;;;;;;3.28;100.00;100454.25;109493;1243;73625;-79
2023/12/12 09:50:15;;;;;;;35.50;21.10;;;;;;;3.51;100.00;100458.52;109513;1245;60227;-79
2023/12/12 09:52:47;;;;;;;35.60;20.00;;;;;;;3.52;100.00;100462.82;109654;1245;60942;-80
2023/12/12 09:55:22;;;;;;;36.60;19.60;;;;;;;3.55;100.00;100464.59;109607;1244;74254;-79
2023/12/12 09:57:52;;;;;;;34.60;19.50;;;;;;;3.62;100.00;100464.04;109532;1243;72562;-79
2023/12/12 10:00:22;;;;;;;36.30;20.00;;;;;;;3.95;100.00;100464.01;109503;1244;70779;-79
2023/12/12 10:02:55;;;;;;;32.30;19.50;;;;;;;3.92;100.00;100449.30;109428;1245;73871;-78
2023/12/12 10:05:28;;;;;;;33.60;18.90;;;;;;;3.74;100.00;100438.66;109571;1245;57761;-79
2023/12/12 10:07:57;;;;;;;37.60;21.20;;;;;;;3.79;100.00;100429.46;109543;1244;61007;-79
2023/12/12 10:10:41;;;;;;;36.20;21.30;;;;;;;3.94;100.00;100430.98;109408;1244;73876;-80
2023/12/12 10:13:10;;;;;;;35.60;20.80;;;;;;;4.17;100.00;100431.39;109448;1245;61209;-79
2023/12/12 10:15:41;;;;;;;35.80;21.00;;;;;;;4.33;100.00;100429.52;109389;1243;70474;-81
2023/12/12 10:18:10;;;;;;;34.70;21.40;;;;;;;4.24;100.00;100436.23;109351;1244;74707;-79
2023/12/12 10:20:38;;;;;;;34.30;20.60;;;;;;;4.16;100.00;100441.46;109444;1245;60712;-79
2023/12/12 10:23:07;;;;;;;35.00;21.10;;;;;;;3.88;100.00;100443.48;109581;1244;57641;-79
2023/12/12 10:25:36;;;;;;;38.20;21.00;;;;;;;3.98;100.00;100442.15;109559;1241;62828;-79
2023/12/12 10:28:05;;;;;;;37.20;21.50;;;;;;;3.95;100.00;100447.12;109513;1242;61620;-78
2023/12/12 10:30:36;;;;;;;38.20;22.20;;;;;;;3.94;100.00;100440.29;109710;1241;59847;-79
2023/12/12 10:33:14;;;;;;;38.80;22.60;;;;;;;4.03;100.00;100446.73;109546;1241;63104;-79
2023/12/12 10:35:46;;;;;;;34.30;21.20;;;;;;;4.36;100.00;100442.14;109485;1246;57119;-79
2023/12/12 10:38:15;;;;;;;31.40;19.00;;;;;;;4.12;100.00;100436.60;109748;1241;57446;-79
2023/12/12 10:40:44;;;;;;;33.70;18.90;;;;;;;4.15;100.00;100423.57;109765;1241;62804;-79
2023/12/12 10:43:13;;;;;;;27.30;17.20;;;;;;;4.24;100.00;100419.48;109605;1241;61684;-79
2023/12/12 10:45:43;;;;;;;28.10;17.20;;;;;;;4.42;100.00;100424.27;109723;1241;59167;-79
2023/12/12 10:48:15;;;;;;;29.90;17.20;;;;;;;4.46;100.00;100423.02;109699;1241;73890;-79
2023/12/12 10:50:47;;;;;;;29.10;17.40;;;;;;;4.46;100.00;100433.03;109625;1244;60761;-79
2023/12/12 10:53:16;;;;;;;28.60;15.60;;;;;;;4.41;100.00;100438.95;109508;1241;57149;-80
2023/12/12 10:55:45;;;;;;;30.40;16.60;;;;;;;4.52;100.00;100437.52;109572;1241;62756;-79
2023/12/12 10:58:14;;;;;;;31.40;16.50;;;;;;;4.66;100.00;100433.55;109441;1241;61765;-79
2023/12/12 11:00:43;;;;;;;36.20;19.40;;;;;;;4.74;100.00;100434.48;109469;1242;70492;-79
2023/12/12 11:03:12;;;;;;;26.30;15.90;;;;;;;4.68;100.00;100436.36;109320;1248;64961;-79
2023/12/12 11:05:42;;;;;;;29.10;16.00;;;;;;;4.57;100.00;100434.71;109467;1244;57799;-79
2023/12/12 11:08:11;;;;;;;27.90;15.40;;;;;;;4.44;100.00;100432.43;109492;1241;57217;-80
2023/12/12 11:10:41;;;;;;;30.20;16.40;;;;;;;4.45;100.00;100434.41;109490;1242;61990;-79
2023/12/12 11:13:11;;;;;;;28.60;15.20;;;;;;;4.54;100.00;100431.56;109520;1241;60667;-79
2023/12/12 11:15:41;;;;;;;26.90;15.20;;;;;;;4.55;100.00;100430.44;109349;1241;69788;-79
2023/12/12 11:18:10;;;;;;;28.10;14.90;;;;;;;4.61;100.00;100433.61;109556;1241;63899;-79
2023/12/12 11:20:40;;;;;;;27.50;16.60;;;;;;;4.48;100.00;100432.54;109478;1244;61140;-81
2023/12/12 11:23:09;;;;;;;30.60;16.90;;;;;;;4.62;100.00;100433.05;109469;1241;60537;-79
2023/12/12 11:25:42;;;;;;;33.30;17.10;;;;;;;4.47;100.00;100436.05;109479;1241;63531;-80
2023/12/12 11:28:12;;;;;;;35.20;17.90;;;;;;;4.57;100.00;100434.71;109607;1241;61955;-79
2023/12/12 11:30:41;;;;;;;31.20;17.50;;;;;;;4.60;100.00;100432.63;109557;1241;69314;-79
2023/12/12 11:33:10;;;;;;;33.60;17.50;;;;;;;4.71;100.00;100429.33;109543;1241;74220;-79
2023/12/12 11:35:40;;;;;;;28.70;16.80;;;;;;;4.54;100.00;100422.77;109479;1244;60544;-79
2023/12/12 11:38:33;;;;;;;31.60;16.60;;;;;;;4.51;100.00;100426.91;109538;1241;61890;-79
2023/12/12 11:41:09;;;;;;;;;;;;;;;4.42;100.00;100431.14;109586;1241;64064;-79
2023/12/12 11:43:39;;;;;;;29.20;16.30;;;;;;;4.53;100.00;100434.73;109576;1241;60698;-78
2023/12/12 11:46:22;;;;;;;30.40;17.30;;;;;;;4.52;100.00;100435.62;109461;1241;59092;-78
2023/12/12 11:48:51;;;;;;;31.40;18.20;;;;;;;4.58;100.00;100441.70;109481;1244;73502;-80
2023/12/12 11:51:53;;;;;;;32.60;17.90;;;;;;;4.50;100.00;100448.16;109282;1246;60527;-78
2023/12/12 11:54:25;;;;;;;30.30;16.70;;;;;;;4.43;100.00;100444.55;109238;1241;61924;-79
2023/12/12 11:57:01;;;;;;;34.00;18.00;;;;;;;4.34;100.00;100449.33;109335;1241;73922;-80
2023/12/12 11:59:33;;;;;;;31.20;17.20;;;;;;;4.27;100.00;100458.98;109253;1247;71287;-79
2023/12/12 12:02:02;;;;;;;29.20;17.30;;;;;;;4.23;100.00;100461.79;109510;1241;70291;-78
2023/12/12 12:04:30;;;;;;;35.90;17.20;;;;;;;4.11;100.00;100463.94;109489;1241;74040;-80
2023/12/12 12:07:01;;;;;;;31.60;17.60;;;;;;;4.14;100.00;100462.56;109499;1241;57729;-80
2023/12/12 12:09:29;;;;;;;30.40;16.80;;;;;;;4.28;100.00;100461.67;109441;1241;60447;-79
2023/12/12 12:11:58;;;;;;;35.20;17.50;;;;;;;4.27;100.00;100462.27;109416;1241;73295;-80
2023/12/12 12:14:27;;;;;;;35.20;17.00;;;;;;;4.22;100.00;100464.56;109541;1241;61366;-79
2023/12/12 12:16:58;;;;;;;33.80;17.90;;;;;;;4.30;100.00;100466.77;109450;1241;60059;-80
2023/12/12 12:19:33;;;;;;;34.30;18.60;;;;;;;4.50;100.00;100468.66;109423;1241;62435;-78
2023/12/12 12:22:11;;;;;;;30.30;16.80;;;;;;;4.55;100.00;100472.77;109416;1242;57145;-79
2023/12/12 12:24:43;;;;;;;35.00;17.80;;;;;;;4.69;100.00;100471.35;109543;1241;60199;-79
2023/12/12 12:27:14;;;;;;;32.00;17.90;;;;;;;4.88;100.00;100469.15;109434;1241;73900;-79
2023/12/12 12:30:01;;;;;;;34.80;18.90;;;;;;;4.90;100.00;100476.60;109606;1241;61577;-79
2023/12/12 12:32:30;;;;;;;32.40;17.50;;;;;;;4.84;100.00;100484.36;109468;1243;69646;-79
2023/12/12 12:35:09;;;;;;;32.60;17.00;;;;;;;4.93;100.00;100484.21;109432;1241;63454;-79
2023/12/12 12:37:40;;;;;;;31.30;17.20;;;;;;;4.90;100.00;100487.49;109570;1241;61236;-79
2023/12/12 12:40:10;;;;;;;33.50;18.60;;;;;;;4.90;100.00;100485.11;109557;1241;61183;-79
2023/12/12 12:42:40;;;;;;;33.60;19.10;;;;;;;4.88;100.00;100488.30;109564;1241;63431;-80
2023/12/12 12:45:10;;;;;;;32.20;17.70;;;;;;;4.70;100.00;100492.17;109342;1242;71421;-79
2023/12/12 12:47:39;;;;;;;32.50;17.90;;;;;;;4.78;100.00;100488.98;109563;1241;61033;-80
2023/12/12 12:50:08;;;;;;;32.00;18.40;;;;;;;4.89;100.00;100490.49;109528;1241;63810;-80
2023/12/12 12:52:37;;;;;;;32.80;18.20;;;;;;;5.14;100.00;100489.85;109536;1241;57600;-79
2023/12/12 12:55:06;;;;;;;35.90;19.70;;;;;;;5.25;100.00;100490.10;109652;1241;61107;-78
2023/12/12 12:57:36;;;;;;;40.80;20.70;;;;;;;5.12;100.00;100487.19;109569;1241;64257;-79
2023/12/12 13:00:06;;;;;;;33.00;18.60;;;;;;;4.91;100.00;100484.32;109567;1241;72165;-80
2023/12/12 13:02:35;;;;;;;34.50;18.80;;;;;;;4.76;100.00;100487.88;109578;1241;60360;-79
2023/12/12 13:05:04;;;;;;;32.50;17.80;;;;;;;4.58;100.00;100492.91;109558;1241;63573;-78
2023/12/12 13:07:34;;;;;;;33.60;18.40;;;;;;;4.35;100.00;100506.49;109544;1241;62191;-78
2023/12/12 13:10:06;;;;;;;37.00;18.30;;;;;;;4.33;100.00;100510.41;109464;1241;60658;-78
2023/12/12 13:12:35;;;;;;;35.60;19.40;;;;;;;4.29;100.00;100512.33;109651;1241;73326;-79
2023/12/12 13:15:07;;;;;;;37.80;19.80;;;;;;;4.28;100.00;100513.94;109705;1241;62169;-79
2023/12/12 13:17:37;;;;;;;34.00;18.30;;;;;;;4.31;100.00;100514.13;109588;1242;70195;-79
2023/12/12 13:20:09;;;;;;;36.30;18.70;;;;;;;4.19;100.00;100512.98;109571;1241;62902;-79
2023/12/12 13:22:43;;;;;;;37.10;18.90;;;;;;;4.09;100.00;100512.27;109540;1243;61626;-79
2023/12/12 13:25:15;;;;;;;37.00;18.90;;;;;;;4.02;100.00;100510.18;109329;1244;57442;-79
2023/12/12 13:27:43;;;;;;;35.60;18.90;;;;;;;3.95;100.00;100511.59;109502;1241;73404;-80
2023/12/12 13:30:12;;;;;;;34.10;18.70;;;;;;;3.97;100.00;100510.28;109530;1241;61135;-79
2023/12/12 13:32:43;;;;;;;36.30;17.70;;;;;;;3.83;100.00;100510.10;109752;1241;59171;-80
2023/12/12 13:35:14;;;;;;;41.70;20.20;;;;;;;3.65;100.00;100506.59;109590;1244;73316;-80
2023/12/12 13:37:59;;;;;;;41.10;20.40;;;;;;;3.58;100.00;100512.79;109532;1243;62288;-79
2023/12/12 13:40:27;;;;;;;37.30;19.10;;;;;;;3.51;100.00;100514.16;109510;1241;61434;-80
2023/12/12 13:42:56;;;;;;;38.00;19.50;;;;;;;3.52;100.00;100514.98;109718;1241;74076;-79
2023/12/12 13:45:26;;;;;;;39.50;19.60;;;;;;;3.48;100.00;100520.13;109565;1241;72442;-79
2023/12/12 13:47:54;;;;;;;40.60;19.60;;;;;;;3.48;100.00;100527.55;109482;1241;70279;-78
2023/12/12 13:50:24;;;;;;;36.60;19.30;;;;;;;3.48;100.00;100530.52;109549;1241;73368;-79
2023/12/12 13:52:52;;;;;;;39.90;19.00;;;;;;;3.47;100.00;100535.35;109550;1242;62407;-79
2023/12/12 13:55:21;;;;;;;37.10;18.90;;;;;;;3.52;100.00;100532.53;109566;1241;60856;-79
2023/12/12 13:57:50;;;;;;;38.80;20.50;;;;;;;3.38;100.00;100537.66;109491;1241;73769;-79
2023/12/12 14:00:19;;;;;;;35.90;18.40;;;;;;;3.37;100.00;100539.57;109333;1241;61635;-79
2023/12/12 14:02:49;;;;;;;39.20;19.80;;;;;;;3.38;100.00;100536.94;109597;1241;70211;-79
2023/12/12 14:05:17;;;;;;;38.90;20.30;;;;;;;3.41;100.00;100537.87;109529;1241;74254;-79
2023/12/12 14:07:47;;;;;;;35.30;18.70;;;;;;;3.31;100.00;100537.44;109446;1243;59781;-79
2023/12/12 14:10:16;;;;;;;35.90;19.70;;;;;;;3.29;100.00;100537.20;109584;1241;60535;-80
2023/12/12 14:12:44;;;;;;;37.90;19.40;;;;;;;3.33;100.00;100534.46;109475;1241;73341;-79
2023/12/12 14:15:13;;;;;;;37.70;19.70;;;;;;;3.20;100.00;100536.55;109593;1241;72296;-80
2023/12/12 14:17:42;;;;;;;34.20;18.30;;;;;;;3.24;100.00;100542.58;109489;1241;70192;-79
2023/12/12 14:20:11;;;;;;;40.90;19.90;;;;;;;3.15;100.00;100544.88;109488;1241;73581;-78
2023/12/12 14:22:41;;;;;;;34.00;18.40;;;;;;;3.07;100.00;100543.88;109474;1242;61817;-79
2023/12/12 14:25:10;;;;;;;36.70;19.70;;;;;;;3.14;100.00;100544.06;109488;1244;60118;-80
2023/12/12 14:27:39;;;;;;;38.80;19.50;;;;;;;3.12;100.00;100550.20;109709;1241;73493;-80
2023/12/12 14:30:14;;;;;;;37.50;18.70;;;;;;;3.07;100.00;100550.73;109716;1241;71772;-80
2023/12/12 14:32:43;;;;;;;35.20;19.50;;;;;;;3.08;100.00;100544.81;109705;1241;59666;-80
2023/12/12 14:35:12;;;;;;;39.10;20.30;;;;;;;3.12;100.00;100542.39;109665;1244;72595;-79
2023/12/12 14:37:41;;;;;;;39.30;20.00;;;;;;;3.05;100.00;100543.27;109663;1244;62344;-79
2023/12/12 14:40:10;;;;;;;43.90;23.50;;;;;;;2.78;100.00;100547.00;109719;1241;61390;-80
2023/12/12 14:42:39;;;;;;;39.90;20.10;;;;;;;2.72;100.00;100552.95;109693;1241;72565;-79
2023/12/12 14:45:09;;;;;;;38.00;18.00;;;;;;;2.77;100.00;100556.83;109751;1241;61590;-80
2023/12/12 14:47:43;;;;;;;39.80;19.70;;;;;;;2.73;100.00;100554.10;109740;1241;60732;-79
2023/12/12 14:50:11;;;;;;;40.40;19.10;;;;;;;2.78;100.00;100555.75;109613;1242;73041;-78
2023/12/12 14:52:41;;;;;;;36.30;18.20;;;;;;;2.82;100.00;100552.52;109619;1242;57770;-79
2023/12/12 14:55:10;;;;;;;38.20;19.70;;;;;;;2.77;100.00;100555.30;109735;1241;59182;-79
2023/12/12 14:57:39;;;;;;;38.40;19.80;;;;;;;2.69;100.00;100555.13;109695;1244;62500;-79
2023/12/12 15:00:13;;;;;;;38.30;18.80;;;;;;;2.83;100.00;100555.73;109693;1244;61613;-79
2023/12/12 15:02:54;;;;;;;41.10;19.50;;;;;;;2.71;100.00;100559.00;109732;1241;69466;-80
2023/12/12 15:05:22;;;;;;;38.80;19.30;;;;;;;2.68;100.00;100558.61;109568;1244;74007;-80
2023/12/12 15:07:51;;;;;;;39.80;19.50;;;;;;;2.69;100.00;100560.63;109658;1241;57696;-79
2023/12/12 15:10:20;;;;;;;41.80;20.20;;;;;;;2.73;100.00;100565.27;109700;1242;57781;-79
2023/12/12 15:12:50;;;;;;;39.60;20.90;;;;;;;2.72;100.00;100571.85;109809;1244;71249;-79
2023/12/12 15:15:19;;;;;;;42.30;22.30;;;;;;;2.69;100.00;100574.39;109730;1245;61347;-80
2023/12/12 15:17:48;;;;;;;45.30;22.50;;;;;;;2.69;100.00;100569.39;109671;1244;59865;-79
2023/12/12 15:20:22;;;;;;;40.70;21.60;;;;;;;2.70;100.00;100568.67;109624;1244;73252;-79
2023/12/12 15:22:51;;;;;;;39.90;21.30;;;;;;;2.59;100.00;100568.27;109670;1244;57436;-79
2023/12/12 15:25:21;;;;;;;39.80;20.10;;;;;;;2.59;100.00;100566.39;109718;1241;57244;-79
2023/12/12 15:28:03;;;;;;;36.70;19.20;;;;;;;2.55;100.00;100568.42;109688;1241;72769;-79
2023/12/12 15:30:52;;;;;;;45.70;22.00;;;;;;;2.62;100.00;100569.36;109706;1241;61839;-81
2023/12/12 15:33:22;;;;;;;40.70;21.50;;;;;;;2.56;100.00;100567.36;109769;1243;68517;-80
2023/12/12 15:35:51;;;;;;;42.90;23.00;;;;;;;2.61;100.00;100565.77;109519;1241;74822;-81
2023/12/12 15:38:20;;;;;;;41.10;20.80;;;;;;;2.69;100.00;100566.64;109684;1244;57779;-80
2023/12/12 15:40:49;;;;;;;41.30;20.80;;;;;;;2.73;100.00;100569.92;109686;1244;57681;-79
2023/12/12 15:43:18;;;;;;;41.20;20.70;;;;;;;2.58;100.00;100568.63;109709;1241;62787;-84
2023/12/12 15:45:47;;;;;;;44.30;21.00;;;;;;;2.64;100.00;100570.64;109715;1243;71820;-81
2023/12/12 15:48:15;;;;;;;40.50;21.40;;;;;;;2.68;100.00;100574.27;109520;1241;70179;-81
2023/12/12 15:50:44;;;;;;;39.90;21.40;;;;;;;2.76;100.00;100573.21;109709;1241;73939;-83
2023/12/12 15:53:13;;;;;;;43.10;21.00;;;;;;;2.79;100.00;100568.64;109661;1243;57614;-82
2023/12/12 15:55:42;;;;;;;44.30;22.90;;;;;;;2.82;100.00;100570.21;109795;1244;57721;-80
2023/12/12 15:58:11;;;;;;;42.30;21.70;;;;;;;2.76;100.00;100577.20;109760;1241;72458;-79
2023/12/12 16:00:40;;;;;;;39.80;21.90;;;;;;;2.69;100.00;100577.33;109737;1241;72044;-80
2023/12/12 16:03:12;;;;;;;46.40;22.30;;;;;;;2.61;100.00;100581.25;109791;1241;71318;-80
2023/12/12 16:05:42;;;;;;;40.60;21.20;;;;;;;2.57;100.00;100579.51;109718;1243;63695;-80
2023/12/12 16:08:12;;;;;;;41.80;21.20;;;;;;;2.66;100.00;100578.45;109578;1244;58499;-80
2023/12/12 16:10:41;;;;;;;47.30;23.40;;;;;;;2.75;100.00;100584.28;109650;1241;61587;-80
2023/12/12 16:13:09;;;;;;;44.90;22.20;;;;;;;2.67;100.00;100582.55;109649;1242;72555;-81
2023/12/12 16:15:39;;;;;;;45.20;23.50;;;;;;;2.59;100.00;100586.16;109774;1242;62366;-79
2023/12/12 16:18:07;;;;;;;46.30;22.60;;;;;;;2.60;100.00;100594.16;109707;1241;70452;-80
2023/12/12 16:20:36;;;;;;;44.30;22.60;;;;;;;2.66;100.00;100593.25;109669;1241;74583;-81
2023/12/12 16:23:05;;;;;;;47.00;22.00;;;;;;;2.74;100.00;100592.91;109789;1244;57270;-80
2023/12/12 16:25:36;;;;;;;46.40;22.00;;;;;;;2.72;100.00;100599.71;109791;1244;57607;-79
2023/12/12 16:28:05;;;;;;;45.30;23.50;;;;;;;2.81;100.00;100603.64;109852;1244;62038;-80
2023/12/12 16:30:35;;;;;;;51.80;25.70;;;;;;;2.86;100.00;100599.29;109958;1244;60626;-78
2023/12/12 16:33:04;;;;;;;47.50;23.50;;;;;;;2.63;100.00;100604.73;109959;1241;69533;-78
2023/12/12 16:35:33;;;;;;;47.80;23.20;;;;;;;2.71;100.00;100609.22;109776;1241;73391;-79
2023/12/12 16:38:01;;;;;;;60.00;28.60;;;;;;;2.67;100.00;100613.32;109624;1245;57708;-80
2023/12/12 16:40:38;;;;;;;53.50;26.30;;;;;;;2.74;100.00;100613.23;109612;1244;59720;-81
2023/12/12 16:43:06;;;;;;;52.60;24.60;;;;;;;2.83;100.00;100613.52;109626;1244;73594;-80
2023/12/12 16:45:35;;;;;;;53.30;25.30;;;;;;;2.87;100.00;100612.15;109711;1243;62537;-81